ETHN

Niederstetten Air Base

Airport
ICAO code
ETHN
Summary
ICAO Region
EUR
ICAO Territory
Location

Niederstetten, Baden-Württemberg,

Coordinates
49° 23' 26" N , 9° 57' 41" E
Metar
ETHN 202120Z 26011KT 9999 BKN072 06/03 Q1027 BLU BLU

Description

Niederstetten Air Base is located 4 km east of the city of Niederstetten in Northern Baden-Württemberg, Germany.

Runways

Designator Length Width Surface Rops
7/25 1012 30 ASP No/No

Airport map

Aerial View

SKYbrary Partners:

Safety knowledge contributed by: